Time;durP1;ratioP1;P1;durP2;ratioP2;P2;SDS_P1;SDS_P2;PMS_P1;PMS_P2;Temp;Humidity;BMP_temperature;BMP_pressure;BME280_temperature;BME280_humidity;BME280_pressure;Samples;Min_cycle;Max_cycle;Signal;HPM_P1;HPM_P2
2021/06/06 00:02:23;;;;;;;9.03;7.65;;;;;;;16.96;55.01;100123.36;1641775;85;21023;-71
2021/06/06 00:04:49;;;;;;;11.57;8.28;;;;;;;16.94;55.74;100128.98;1636753;86;21010;-70
2021/06/06 00:07:15;;;;;;;13.10;8.30;;;;;;;16.93;56.06;100128.67;1636736;86;21043;-71
2021/06/06 00:09:42;;;;;;;10.32;7.67;;;;;;;16.87;56.54;100123.70;1640356;86;21054;-70
2021/06/06 00:12:10;;;;;;;18.87;9.55;;;;;;;16.81;56.60;100125.97;1621825;86;22099;-71
2021/06/06 00:14:39;;;;;;;8.53;7.78;;;;;;;16.73;56.66;100122.29;1641844;86;21009;-71
2021/06/06 00:17:10;;;;;;;12.30;8.98;;;;;;;16.64;57.17;100125.03;1636703;87;21461;-72
2021/06/06 00:19:37;;;;;;;10.30;7.87;;;;;;;16.55;57.59;100128.05;1638574;86;20987;-72
2021/06/06 00:22:06;;;;;;;14.13;9.55;;;;;;;16.51;57.91;100128.23;1641722;85;21014;-69
2021/06/06 00:24:35;;;;;;;9.70;8.90;;;;;;;16.51;57.99;100129.58;1641081;87;21489;-71
2021/06/06 00:27:01;;;;;;;15.63;9.20;;;;;;;16.46;58.39;100124.09;1641400;86;21074;-69
2021/06/06 00:29:28;;;;;;;11.15;10.05;;;;;;;16.38;58.75;100120.91;1640093;86;21029;-72
2021/06/06 00:31:55;;;;;;;11.03;9.05;;;;;;;16.30;58.89;100126.92;1634233;86;21086;-72
2021/06/06 00:34:24;;;;;;;13.95;9.00;;;;;;;16.24;59.08;100118.97;1613787;86;20998;-70
2021/06/06 00:36:52;;;;;;;13.43;10.08;;;;;;;16.17;59.17;100120.94;1634232;86;21081;-70
2021/06/06 00:39:19;;;;;;;12.98;10.13;;;;;;;16.11;59.44;100118.65;1634985;86;21018;-71
2021/06/06 00:41:49;;;;;;;12.73;11.40;;;;;;;16.04;59.58;100124.11;1635775;86;21532;-70
2021/06/06 00:44:17;;;;;;;14.60;10.85;;;;;;;15.97;59.41;100124.72;1611682;86;20983;-71
2021/06/06 00:46:44;;;;;;;13.13;10.32;;;;;;;15.90;59.56;100125.37;1615409;86;21028;-70
2021/06/06 00:49:13;;;;;;;11.00;10.03;;;;;;;15.81;59.72;100119.48;1641347;86;21032;-72
2021/06/06 00:51:55;;;;;;;10.28;8.85;;;;;;;15.78;60.18;100123.15;1628193;87;21059;-72
2021/06/06 00:54:30;;;;;;;13.95;10.05;;;;;;;15.77;60.01;100116.96;1632848;86;21723;-72
2021/06/06 00:57:04;;;;;;;10.27;9.03;;;;;;;15.73;60.08;100115.75;1639211;86;21029;-71
2021/06/06 00:59:34;;;;;;;10.00;9.18;;;;;;;15.64;60.11;100123.30;1636814;86;21592;-71
2021/06/06 01:02:01;;;;;;;8.63;7.75;;;;;;;15.57;60.20;100120.69;1641384;84;21098;-71
2021/06/06 01:04:27;;;;;;;10.15;8.63;;;;;;;15.52;60.54;100124.59;1636962;86;21141;-72
2021/06/06 01:06:55;;;;;;;9.83;7.75;;;;;;;15.50;60.41;100119.13;1636337;86;21063;-71
2021/06/06 01:09:25;;;;;;;9.30;8.40;;;;;;;15.49;60.36;100116.97;1635421;87;21133;-70
2021/06/06 01:12:03;;;;;;;9.75;8.85;;;;;;;15.48;60.39;100109.98;1644941;85;21069;-70
2021/06/06 01:14:53;;;;;;;13.45;8.60;;;;;;;15.47;60.21;100108.33;1641971;86;21153;-70
2021/06/06 01:17:38;;;;;;;12.13;9.85;;;;;;;15.49;60.53;100104.89;1639726;86;21030;-70
2021/06/06 01:20:22;;;;;;;12.73;9.68;;;;;;;15.55;60.70;100112.56;1662057;85;21566;-71
2021/06/06 01:23:10;;;;;;;10.68;9.78;;;;;;;15.62;60.86;100110.62;1560543;86;21522;-70
2021/06/06 01:25:42;;;;;;;13.15;9.80;;;;;;;15.62;60.92;100110.62;1613692;87;21003;-71
2021/06/06 01:28:18;;;;;;;12.58;10.35;;;;;;;15.56;60.90;100108.31;1628465;86;21003;-71
2021/06/06 01:30:49;;;;;;;14.93;9.78;;;;;;;15.54;60.91;100106.91;1616500;87;21053;-72
2021/06/06 01:33:38;;;;;;;11.95;8.83;;;;;;;15.52;61.17;100103.11;1606095;87;21106;-70
2021/06/06 01:36:30;;;;;;;14.45;11.08;;;;;;;15.49;61.35;100102.20;1624602;87;21050;-71
2021/06/06 01:39:18;;;;;;;10.58;9.45;;;;;;;15.46;61.49;100104.52;1641355;86;21123;-72
2021/06/06 01:41:50;;;;;;;13.58;10.48;;;;;;;15.44;61.71;100107.42;1642490;86;21548;-72
2021/06/06 01:44:22;;;;;;;10.68;9.68;;;;;;;15.46;61.81;100106.67;1638303;85;21059;-72
2021/06/06 01:46:56;;;;;;;14.07;10.03;;;;;;;15.58;61.78;100110.78;1641278;86;21050;-71
2021/06/06 01:49:27;;;;;;;11.88;9.75;;;;;;;15.61;61.80;100118.37;1640552;86;21565;-74
2021/06/06 01:51:58;;;;;;;14.38;10.03;;;;;;;15.60;61.85;100114.59;1638942;86;21073;-74
2021/06/06 01:54:31;;;;;;;11.10;9.88;;;;;;;15.58;62.04;100112.13;1638882;86;21043;-71
2021/06/06 01:56:58;;;;;;;10.03;9.03;;;;;;;15.57;62.29;100108.59;1636715;86;21010;-71
2021/06/06 01:59:40;;;;;;;9.80;8.80;;;;;;;15.54;62.38;100111.75;1637080;86;21053;-70
2021/06/06 02:02:07;;;;;;;10.18;8.48;;;;;;;15.53;62.46;100111.98;1638800;86;21121;-70
2021/06/06 02:04:36;;;;;;;9.73;6.90;;;;;;;15.49;62.46;100117.51;1639884;86;21075;-71
2021/06/06 02:07:26;;;;;;;8.55;7.80;;;;;;;15.52;62.11;100119.22;1639620;86;21197;-70
2021/06/06 02:10:19;;;;;;;12.45;5.87;;;;;;;15.58;61.74;100125.55;1646951;86;21083;-71
2021/06/06 02:12:59;;;;;;;8.83;6.50;;;;;;;15.55;61.60;100132.18;1631036;86;21542;-71
2021/06/06 02:15:33;;;;;;;14.00;7.62;;;;;;;15.49;61.97;100130.94;1637354;86;20999;-70
2021/06/06 02:21:00;;;;;;;12.80;8.08;;;;;;;15.49;60.62;100123.69;1777545;78;22819;-69
2021/06/06 02:23:33;;;;;;;7.05;6.45;;;;;;;15.45;60.03;100125.20;1742975;81;21028;-70
2021/06/06 02:26:08;;;;;;;6.55;5.67;;;;;;;15.46;58.61;100127.34;1733116;81;21079;-69
2021/06/06 02:28:47;;;;;;;7.65;4.37;;;;;;;15.48;58.27;100123.41;1733591;81;21515;-70
2021/06/06 02:31:36;;;;;;;4.47;4.08;;;;;;;15.51;57.26;100120.78;1732997;81;21083;-70
2021/06/06 02:34:23;;;;;;;4.53;3.80;;;;;;;15.57;56.56;100126.05;1713120;82;21072;-70
2021/06/06 02:37:08;;;;;;;8.08;5.33;;;;;;;15.64;57.15;100127.33;1670251;83;21503;-70
2021/06/06 02:39:42;;;;;;;3.62;2.47;;;;;;;15.67;57.77;100128.23;1694429;84;21048;-70
2021/06/06 02:42:19;;;;;;;6.58;2.15;;;;;;;15.67;55.30;100118.83;1666383;85;21086;-71
2021/06/06 02:44:56;;;;;;;3.10;0.82;;;;;;;15.73;53.69;100119.78;1694044;83;21479;-69
2021/06/06 02:47:29;;;;;;;9.05;1.55;;;;;;;15.83;52.48;100122.77;1684346;83;21021;-70
2021/06/06 02:50:03;;;;;;;1.37;1.12;;;;;;;15.93;52.27;100129.73;1694032;83;21057;-70
2021/06/06 02:52:41;;;;;;;6.22;1.35;;;;;;;16.02;52.23;100134.27;1698018;84;21013;-70
2021/06/06 02:55:24;;;;;;;3.65;1.00;;;;;;;16.10;52.27;100136.63;1677828;84;21041;-72
2021/06/06 02:58:08;;;;;;;6.00;1.72;;;;;;;16.16;52.03;100128.16;1697694;83;21068;-71
2021/06/06 03:00:48;;;;;;;8.20;4.80;;;;;;;16.23;53.04;100128.08;1691540;83;21049;-70
2021/06/06 03:03:29;;;;;;;5.83;5.25;;;;;;;16.26;57.05;100125.75;1697461;83;21582;-70
2021/06/06 03:06:01;;;;;;;8.15;4.78;;;;;;;16.26;59.15;100131.66;1677779;83;21040;-70
2021/06/06 03:08:30;;;;;;;9.98;5.92;;;;;;;16.21;59.94;100125.61;1697617;83;21017;-70
2021/06/06 03:10:57;;;;;;;9.93;5.28;;;;;;;16.07;60.14;100125.54;1693373;83;21036;-70
2021/06/06 03:13:32;;;;;;;6.22;5.53;;;;;;;15.94;61.69;100125.20;1654293;83;21058;-70
2021/06/06 03:16:02;;;;;;;6.08;5.58;;;;;;;15.81;62.45;100126.20;1694273;83;21025;-70
2021/06/06 03:18:36;;;;;;;7.53;5.37;;;;;;;15.73;62.83;100125.16;1696473;83;21060;-70
2021/06/06 03:21:22;;;;;;;10.18;4.35;;;;;;;15.67;63.09;100132.76;1700857;83;21008;-70
2021/06/06 03:24:04;;;;;;;4.58;2.62;;;;;;;15.67;62.93;100133.60;1683151;83;21554;-70
2021/06/06 03:26:35;;;;;;;4.62;4.05;;;;;;;15.67;60.35;100134.10;1672068;85;21060;-71
2021/06/06 03:29:06;;;;;;;4.55;4.08;;;;;;;15.60;61.69;100138.23;1673584;84;21028;-70
2021/06/06 03:31:44;;;;;;;6.40;4.22;;;;;;;15.53;63.14;100131.59;1669332;84;20977;-70
2021/06/06 03:34:12;;;;;;;6.50;4.30;;;;;;;15.48;63.65;100127.94;1675680;84;21054;-71
2021/06/06 03:36:44;;;;;;;4.28;3.55;;;;;;;15.49;63.87;100128.25;1669816;84;21020;-71
2021/06/06 03:39:26;;;;;;;6.70;3.95;;;;;;;15.57;64.30;100124.71;1671870;84;21022;-70
2021/06/06 03:41:49;;;;;;;4.00;3.52;;;;;;;15.43;64.86;100095.59;1685952;84;21076;-71
2021/06/06 03:44:17;;;;;;;3.67;3.37;;;;;;;15.66;64.87;100126.58;1688787;84;20999;-71
2021/06/06 03:46:46;;;;;;;3.72;3.52;;;;;;;15.71;64.92;100120.53;1698475;83;21106;-69
2021/06/06 03:49:13;;;;;;;10.28;4.83;;;;;;;15.75;65.25;100123.09;1695727;83;21046;-71
2021/06/06 03:51:42;;;;;;;7.10;5.53;;;;;;;15.74;65.32;100122.25;1700191;83;21067;-71
2021/06/06 03:54:11;;;;;;;7.70;6.10;;;;;;;15.78;65.38;100119.93;1699843;83;21107;-71
2021/06/06 03:56:42;;;;;;;7.90;5.87;;;;;;;15.89;65.91;100121.84;1677153;83;21558;-70
2021/06/06 03:59:12;;;;;;;8.28;6.78;;;;;;;16.00;65.90;100122.13;1644194;86;21770;-70
2021/06/06 04:01:42;;;;;;;8.48;5.85;;;;;;;16.08;65.85;100125.28;1635904;86;21479;-72
2021/06/06 04:04:09;;;;;;;7.50;6.80;;;;;;;16.13;66.14;100129.45;1631175;86;21033;-70
2021/06/06 04:06:35;;;;;;;7.95;6.35;;;;;;;16.20;65.47;100133.41;1611484;86;21222;-71
2021/06/06 04:09:05;;;;;;;8.73;7.97;;;;;;;16.29;64.85;100131.18;1639380;86;21120;-71
2021/06/06 04:11:33;;;;;;;7.22;6.47;;;;;;;16.37;64.48;100132.20;1636290;85;21044;-71
2021/06/06 04:14:03;;;;;;;12.37;7.47;;;;;;;16.42;64.25;100130.97;1664611;85;21487;-71
2021/06/06 04:16:31;;;;;;;8.90;7.33;;;;;;;16.48;64.07;100125.19;1657875;85;21431;-71
2021/06/06 04:18:58;;;;;;;8.95;6.83;;;;;;;16.57;63.79;100128.36;1660869;85;21076;-70
2021/06/06 04:21:30;;;;;;;12.13;6.25;;;;;;;16.69;62.93;100128.66;1660303;85;21105;-71
2021/06/06 04:23:58;;;;;;;14.00;7.25;;;;;;;16.77;62.81;100128.02;1700972;83;20989;-71
2021/06/06 04:26:26;;;;;;;6.45;5.95;;;;;;;16.79;62.70;100128.61;1692956;83;21029;-70
2021/06/06 04:28:54;;;;;;;18.32;6.80;;;;;;;16.79;62.43;100124.03;1701191;83;21044;-71
2021/06/06 04:31:26;;;;;;;10.10;6.60;;;;;;;16.83;61.71;100130.61;1698888;83;21081;-69
2021/06/06 04:33:52;;;;;;;9.78;6.65;;;;;;;16.92;61.95;100135.94;1692005;83;21054;-71
2021/06/06 04:36:19;;;;;;;6.72;6.12;;;;;;;16.92;61.95;100135.94;1678382;84;21163;-70
2021/06/06 04:38:47;;;;;;;7.42;5.92;;;;;;;16.99;60.69;100126.91;1674413;84;21080;-71
2021/06/06 04:41:15;;;;;;;9.93;6.20;;;;;;;16.99;60.69;100126.91;1674471;84;21006;-71
2021/06/06 04:43:43;;;;;;;9.30;7.33;;;;;;;17.03;61.48;100128.10;1670535;84;21048;-71
2021/06/06 04:46:10;;;;;;;9.40;7.12;;;;;;;17.06;61.76;100133.00;1676290;84;21097;-69
2021/06/06 04:48:46;;;;;;;9.73;6.28;;;;;;;17.11;62.17;100136.63;1677354;84;21105;-71
2021/06/06 04:51:20;;;;;;;14.58;6.28;;;;;;;17.25;64.06;100131.81;1654870;84;21136;-73
2021/06/06 04:53:54;;;;;;;7.47;5.75;;;;;;;17.25;64.06;100131.81;1674880;84;21504;-71
2021/06/06 04:56:26;;;;;;;6.97;6.10;;;;;;;17.25;64.45;100140.41;1674741;83;21152;-72
2021/06/06 04:58:56;;;;;;;6.22;5.17;;;;;;;17.26;64.69;100135.31;1625135;87;21031;-70
2021/06/06 05:01:27;;;;;;;12.60;5.72;;;;;;;17.27;65.03;100129.70;1624715;86;21179;-71
2021/06/06 05:03:55;;;;;;;5.80;5.00;;;;;;;17.45;64.77;100134.09;1639794;86;21582;-70
2021/06/06 05:06:22;;;;;;;5.30;4.80;;;;;;;17.45;64.77;100134.09;1639452;86;22339;-73
2021/06/06 05:08:52;;;;;;;7.55;4.90;;;;;;;17.50;64.16;100129.34;1647758;85;21048;-71
2021/06/06 05:11:19;;;;;;;6.40;5.50;;;;;;;17.50;64.20;100130.16;1639716;86;21672;-72
2021/06/06 05:13:47;;;;;;;9.65;6.15;;;;;;;17.53;64.20;100130.73;1621946;87;21060;-71
2021/06/06 05:16:17;;;;;;;8.15;5.95;;;;;;;17.59;65.23;100127.88;1619481;87;21133;-72
2021/06/06 05:18:44;;;;;;;6.33;5.25;;;;;;;17.59;65.23;100127.88;1619590;87;21114;-71
2021/06/06 05:21:12;;;;;;;11.22;6.20;;;;;;;17.65;64.82;100126.95;1619948;87;21072;-71
2021/06/06 05:23:40;;;;;;;6.90;5.97;;;;;;;17.75;65.12;100133.59;1658854;84;21030;-73
2021/06/06 05:26:09;;;;;;;7.78;5.60;;;;;;;17.73;65.09;100136.52;1680216;84;21080;-72
2021/06/06 05:28:37;;;;;;;8.85;5.15;;;;;;;17.73;65.09;100136.52;1680476;84;21508;-71
2021/06/06 05:31:08;;;;;;;7.37;5.28;;;;;;;17.70;65.56;100133.77;1680680;84;21083;-75
2021/06/06 05:33:35;;;;;;;6.72;6.12;;;;;;;17.68;64.22;100136.42;1679527;82;21129;-78
2021/06/06 05:36:03;;;;;;;6.25;5.65;;;;;;;17.67;64.66;100132.91;1677994;84;21149;-71
2021/06/06 05:38:32;;;;;;;5.95;5.30;;;;;;;17.66;65.05;100136.66;1683496;84;21133;-74
2021/06/06 05:41:01;;;;;;;8.50;5.33;;;;;;;17.66;64.54;100136.66;1686226;84;21086;-72
2021/06/06 05:43:28;;;;;;;7.28;5.95;;;;;;;17.76;64.07;100132.52;1684875;84;21037;-72
2021/06/06 05:45:55;;;;;;;5.95;5.45;;;;;;;17.85;64.53;100132.45;1662935;84;21053;-72
2021/06/06 05:48:24;;;;;;;7.50;5.20;;;;;;;17.89;65.31;100132.25;1666074;85;21079;-72
2021/06/06 05:50:58;;;;;;;9.33;5.58;;;;;;;17.89;65.98;100132.25;1663985;85;21116;-73
2021/06/06 05:53:39;;;;;;;10.08;5.72;;;;;;;17.94;64.98;100132.89;1666552;85;21131;-71
2021/06/06 05:56:07;;;;;;;5.12;4.70;;;;;;;17.98;64.81;100128.11;1667315;83;21148;-70
2021/06/06 05:58:34;;;;;;;5.45;4.95;;;;;;;18.07;64.32;100130.70;1662112;85;21505;-73
2021/06/06 06:01:01;;;;;;;5.12;4.72;;;;;;;18.23;63.57;100132.31;1664195;83;21573;-72
2021/06/06 06:03:27;;;;;;;4.33;3.95;;;;;;;18.34;63.61;100132.77;1669190;85;21134;-71
2021/06/06 06:05:55;;;;;;;4.03;3.72;;;;;;;18.39;63.17;100127.47;1655212;85;21121;-71
2021/06/06 06:08:31;;;;;;;5.37;3.92;;;;;;;18.45;63.79;100128.36;1660213;85;21103;-71
2021/06/06 06:11:00;;;;;;;;;;;;;;;18.55;62.62;100133.91;1666666;85;21134;-72
2021/06/06 06:13:31;;;;;;;6.62;3.75;;;;;;;18.64;61.68;100131.09;1689209;84;20177;-72
2021/06/06 06:16:02;;;;;;;3.85;3.20;;;;;;;18.65;60.23;100134.63;1670970;84;21071;-72
2021/06/06 06:18:30;;;;;;;3.17;2.58;;;;;;;18.68;59.88;100135.46;1687483;85;21607;-71
2021/06/06 06:20:59;;;;;;;4.17;3.08;;;;;;;18.68;59.53;100130.91;1688205;83;21098;-72
2021/06/06 06:23:27;;;;;;;3.72;2.62;;;;;;;18.67;59.05;100135.19;1701377;83;21053;-72
2021/06/06 06:25:55;;;;;;;4.00;3.33;;;;;;;18.68;58.53;100130.91;1702621;83;20990;-71
2021/06/06 06:28:23;;;;;;;3.58;3.05;;;;;;;18.70;58.08;100130.62;1694854;83;21046;-72
2021/06/06 06:30:51;;;;;;;3.75;3.33;;;;;;;18.73;58.40;100129.34;1691468;83;21034;-72
2021/06/06 06:33:19;;;;;;;3.70;3.25;;;;;;;18.75;57.85;100130.72;1696166;83;21050;-70
2021/06/06 06:35:45;;;;;;;3.12;2.58;;;;;;;18.73;58.70;100122.59;1693451;84;21043;-72
2021/06/06 06:38:13;;;;;;;3.60;3.30;;;;;;;18.75;58.71;100127.20;1685453;84;21042;-72
2021/06/06 06:40:42;;;;;;;6.92;3.02;;;;;;;18.81;58.14;100126.23;1694791;83;20995;-71
2021/06/06 06:43:09;;;;;;;9.00;3.60;;;;;;;18.77;57.76;100121.02;1695260;83;20967;-73
2021/06/06 06:45:40;;;;;;;5.65;2.55;;;;;;;18.75;58.57;100121.27;1689962;83;21111;-72
2021/06/06 06:48:20;;;;;;;3.22;2.92;;;;;;;18.77;58.36;100117.78;1676314;83;21037;-72
2021/06/06 06:50:49;;;;;;;3.80;2.60;;;;;;;18.82;57.81;100121.14;1688306;83;20989;-72
2021/06/06 06:53:18;;;;;;;4.25;2.75;;;;;;;18.83;56.19;100114.66;1690901;84;21710;-72
2021/06/06 06:55:44;;;;;;;3.77;2.92;;;;;;;18.85;56.56;100121.45;1661994;83;21025;-72
2021/06/06 06:58:11;;;;;;;6.78;2.85;;;;;;;18.88;55.99;100117.97;1665010;85;21096;-73
2021/06/06 07:00:43;;;;;;;6.05;2.75;;;;;;;18.84;57.64;100121.16;1663428;85;21100;-74
2021/06/06 07:03:13;;;;;;;4.28;2.72;;;;;;;18.81;56.81;100120.30;1664374;85;21025;-72
2021/06/06 07:05:41;;;;;;;2.83;2.35;;;;;;;18.83;56.46;100122.75;1665643;85;20996;-72
2021/06/06 07:08:11;;;;;;;3.60;2.65;;;;;;;18.81;55.99;100124.34;1633893;86;21073;-72
2021/06/06 07:10:42;;;;;;;6.03;3.40;;;;;;;18.76;55.82;100113.97;1625206;86;21053;-74
2021/06/06 07:13:10;;;;;;;6.47;2.62;;;;;;;18.72;56.08;100116.89;1643643;86;21058;-72
2021/06/06 07:15:38;;;;;;;6.03;2.08;;;;;;;18.69;55.73;100120.91;1647576;86;21158;-73
2021/06/06 07:18:07;;;;;;;2.85;2.47;;;;;;;18.67;56.76;100125.74;1650080;86;21006;-73
2021/06/06 07:20:39;;;;;;;4.12;2.15;;;;;;;18.53;57.07;100125.24;1648748;86;21049;-73
2021/06/06 07:23:10;;;;;;;3.00;1.22;;;;;;;18.39;57.40;100123.42;1631840;86;21061;-73
2021/06/06 07:25:39;;;;;;;1.32;1.10;;;;;;;18.27;57.21;100126.20;1627133;86;21058;-72
2021/06/06 07:28:08;;;;;;;3.55;0.70;;;;;;;18.16;57.15;100124.39;1627762;86;21666;-72
2021/06/06 07:30:41;;;;;;;3.67;0.60;;;;;;;18.04;56.09;100124.97;1625396;86;21144;-72
2021/06/06 07:33:09;;;;;;;1.85;0.68;;;;;;;17.93;56.18;100123.97;1631364;86;21090;-71
2021/06/06 07:35:36;;;;;;;5.67;0.57;;;;;;;17.84;56.74;100131.64;1621123;87;21053;-73
2021/06/06 07:38:04;;;;;;;1.70;0.60;;;;;;;17.79;56.22;100130.16;1615224;87;21030;-75
2021/06/06 07:40:36;;;;;;;2.20;0.70;;;;;;;17.77;56.77;100132.83;1620208;87;21360;-70
2021/06/06 07:43:04;;;;;;;3.67;0.65;;;;;;;17.74;56.48;100134.64;1613684;87;21167;-71
2021/06/06 07:45:33;;;;;;;1.37;0.88;;;;;;;17.66;56.92;100131.27;1592911;88;21136;-74
2021/06/06 07:48:00;;;;;;;3.60;1.35;;;;;;;17.64;57.21;100132.58;1594992;88;21021;-70
2021/06/06 07:50:32;;;;;;;3.05;0.70;;;;;;;17.64;57.21;100132.58;1595251;88;21074;-72
2021/06/06 07:52:58;;;;;;;5.53;1.05;;;;;;;17.62;57.67;100123.38;1594328;88;21134;-72
2021/06/06 07:55:27;;;;;;;;;;;;;;;17.59;57.43;100121.69;1596381;87;21583;-72
2021/06/06 07:57:54;;;;;;;7.53;2.12;;;;;;;17.58;58.43;100132.20;1591938;89;20135;-73
2021/06/06 08:00:26;;;;;;;1.87;1.10;;;;;;;17.45;59.68;100136.78;1621062;87;21964;-72
2021/06/06 08:02:52;;;;;;;1.77;1.32;;;;;;;17.46;59.17;100138.94;1600485;88;21093;-73
2021/06/06 08:05:20;;;;;;;5.22;1.82;;;;;;;17.56;59.17;100141.86;1602168;88;21009;-74
2021/06/06 08:07:47;;;;;;;2.47;1.72;;;;;;;17.62;59.42;100134.16;1608253;88;21105;-72
2021/06/06 08:10:17;;;;;;;2.77;1.02;;;;;;;17.67;60.57;100136.15;1618201;87;21130;-71
2021/06/06 08:12:43;;;;;;;8.20;2.05;;;;;;;17.69;60.47;100140.23;1597832;88;21015;-73
2021/06/06 08:15:13;;;;;;;4.12;2.12;;;;;;;17.75;60.72;100137.64;1598749;88;21089;-72
2021/06/06 08:17:40;;;;;;;2.55;2.33;;;;;;;17.77;61.43;100135.52;1603239;88;21790;-73
2021/06/06 08:20:14;;;;;;;3.95;2.22;;;;;;;17.80;62.36;100135.02;1602619;88;21075;-73
2021/06/06 08:22:42;;;;;;;2.30;2.10;;;;;;;17.83;61.50;100139.94;1626401;85;21163;-73
2021/06/06 08:25:11;;;;;;;5.35;1.90;;;;;;;17.86;61.03;100142.20;1616294;88;21052;-73
2021/06/06 08:27:42;;;;;;;2.10;1.77;;;;;;;17.88;61.06;100135.49;1615295;87;21226;-71
2021/06/06 08:30:25;;;;;;;2.62;2.30;;;;;;;17.85;62.23;100140.55;1618868;87;21010;-73
2021/06/06 08:32:51;;;;;;;4.08;2.17;;;;;;;17.75;62.02;100134.94;1616050;87;21132;-72
2021/06/06 08:35:18;;;;;;;4.22;2.15;;;;;;;17.68;62.24;100141.81;1589660;86;21030;-71
2021/06/06 08:37:46;;;;;;;2.47;2.12;;;;;;;17.66;62.48;100135.84;1601061;88;21077;-74
2021/06/06 08:40:27;;;;;;;16.50;2.12;;;;;;;17.67;61.94;100142.34;1610900;87;21181;-73
2021/06/06 08:42:54;;;;;;;3.65;1.65;;;;;;;17.69;62.55;100137.53;1612118;87;21530;-72
2021/06/06 08:45:46;;;;;;;4.70;2.33;;;;;;;17.63;63.08;100135.80;1638685;84;21552;-72
2021/06/06 08:48:14;;;;;;;5.67;1.65;;;;;;;17.53;63.50;100133.43;1668758;84;21025;-73
2021/06/06 08:50:45;;;;;;;2.83;1.82;;;;;;;17.41;62.84;100135.63;1671878;84;21125;-73
2021/06/06 08:53:22;;;;;;;2.50;1.45;;;;;;;17.32;62.77;100137.05;1670090;84;21034;-73
2021/06/06 08:56:09;;;;;;;;;;;;;;;17.22;63.79;100137.66;1672724;84;21082;-73
2021/06/06 08:58:52;;;;;;;8.38;1.65;;;;;;;17.14;64.61;100136.69;1668572;84;20135;-72
2021/06/06 09:01:58;;;;;;;1.85;1.75;;;;;;;17.10;64.49;100139.55;1627728;86;21038;-74
2021/06/06 09:04:29;;;;;;;6.15;2.75;;;;;;;17.07;64.81;100135.46;1549607;91;21115;-72
2021/06/06 09:07:19;;;;;;;2.42;2.22;;;;;;;16.98;65.74;100146.83;1588347;88;21134;-74
2021/06/06 09:09:50;;;;;;;4.90;2.00;;;;;;;16.95;65.91;100138.67;1600196;88;21609;-73
2021/06/06 09:12:21;;;;;;;3.27;1.82;;;;;;;17.04;65.73;100137.27;1592545;89;21121;-74
2021/06/06 09:14:51;;;;;;;2.75;1.70;;;;;;;17.18;65.42;100136.51;1593407;89;21029;-74
2021/06/06 09:17:22;;;;;;;3.20;2.10;;;;;;;17.29;65.45;100133.48;1581243;89;21062;-74
2021/06/06 09:19:56;;;;;;;4.28;2.85;;;;;;;17.35;64.72;100131.70;1602218;88;21173;-73
2021/06/06 09:22:38;;;;;;;7.62;3.12;;;;;;;17.35;64.72;100131.70;1611589;88;21195;-74
2021/06/06 09:25:17;;;;;;;3.95;2.40;;;;;;;17.40;65.02;100129.94;1688550;84;21128;-72
2021/06/06 09:27:44;;;;;;;6.72;1.80;;;;;;;17.40;63.97;100129.13;1687940;83;21049;-76
2021/06/06 09:30:23;;;;;;;8.28;2.90;;;;;;;17.39;63.06;100126.16;1686204;83;21085;-76
2021/06/06 09:32:51;;;;;;;4.00;2.85;;;;;;;17.34;64.36;100126.05;1683928;84;21128;-76
2021/06/06 09:35:28;;;;;;;5.00;3.17;;;;;;;17.34;64.36;100126.05;1654242;84;20961;-76
2021/06/06 09:38:18;;;;;;;3.52;3.22;;;;;;;17.36;65.21;100124.73;1656045;85;21108;-76
2021/06/06 09:40:49;;;;;;;5.20;3.70;;;;;;;17.40;65.07;100115.13;1687017;83;21002;-72
2021/06/06 09:43:30;;;;;;;4.03;3.40;;;;;;;17.47;64.09;100121.20;1687219;84;21038;-73
2021/06/06 09:46:14;;;;;;;6.92;3.45;;;;;;;17.58;63.91;100117.38;1665483;84;21068;-74
2021/06/06 09:48:42;;;;;;;8.63;4.05;;;;;;;17.66;64.84;100109.70;1683414;83;21066;-73
2021/06/06 09:51:29;;;;;;;5.20;4.50;;;;;;;17.66;64.84;100109.70;1682557;85;21053;-74
2021/06/06 09:54:16;;;;;;;4.33;3.83;;;;;;;17.68;64.77;100112.97;1681712;84;21006;-71
2021/06/06 09:56:52;;;;;;;5.37;3.67;;;;;;;17.87;65.07;100101.48;1662702;84;21061;-72
2021/06/06 09:59:37;;;;;;;9.03;4.12;;;;;;;17.87;65.07;100101.48;1673757;84;20997;-73
2021/06/06 10:02:30;;;;;;;4.97;4.10;;;;;;;18.09;65.67;100103.50;1671535;84;21005;-72
2021/06/06 10:05:11;;;;;;;5.40;4.42;;;;;;;18.27;63.56;100105.13;1682718;85;21029;-72
2021/06/06 10:07:44;;;;;;;7.78;4.20;;;;;;;18.32;63.21;100100.36;1677509;85;21467;-73
2021/06/06 10:10:18;;;;;;;7.97;5.60;;;;;;;18.34;62.42;100103.09;1669556;85;21028;-72
2021/06/06 10:12:48;;;;;;;5.08;3.45;;;;;;;18.38;61.72;100097.48;1671374;83;20993;-74
2021/06/06 10:15:29;;;;;;;5.58;3.47;;;;;;;18.42;60.82;100098.66;1687870;85;21161;-73
2021/06/06 10:18:03;;;;;;;3.50;3.30;;;;;;;18.47;61.29;100098.70;1682788;84;22078;-75
2021/06/06 10:20:38;;;;;;;6.20;3.60;;;;;;;18.54;60.64;100095.05;1671533;84;21542;-73
2021/06/06 10:23:32;;;;;;;4.85;3.62;;;;;;;18.61;59.92;100095.16;1683266;83;21088;-72
2021/06/06 10:26:21;;;;;;;3.52;3.27;;;;;;;18.65;59.85;100087.38;1663809;84;21160;-72
2021/06/06 10:28:52;;;;;;;5.83;3.27;;;;;;;18.66;59.68;100081.71;1664750;84;21037;-73
2021/06/06 10:31:34;;;;;;;4.65;4.15;;;;;;;18.70;59.05;100087.98;1649970;85;21173;-73
2021/06/06 10:34:31;;;;;;;4.22;3.45;;;;;;;18.70;59.55;100083.38;1668457;84;21568;-73
2021/06/06 10:36:59;;;;;;;10.70;3.65;;;;;;;18.74;59.96;100077.80;1661139;85;21114;-73
2021/06/06 10:39:30;;;;;;;3.60;2.98;;;;;;;18.81;59.78;100074.39;1662142;86;21062;-73
2021/06/06 10:42:20;;;;;;;3.65;2.87;;;;;;;18.86;58.68;100071.77;1659184;85;21156;-73
2021/06/06 10:45:27;;;;;;;5.75;3.17;;;;;;;18.94;59.37;100073.22;1610217;87;21668;-71
2021/06/06 10:48:02;;;;;;;11.85;3.65;;;;;;;19.06;59.18;100066.34;1665661;84;21061;-73
2021/06/06 10:50:42;;;;;;;5.20;2.52;;;;;;;19.19;58.57;100067.34;1674454;84;20988;-72
2021/06/06 10:53:23;;;;;;;7.17;3.62;;;;;;;19.29;57.81;100060.39;1676709;84;21167;-72
2021/06/06 10:56:07;;;;;;;7.70;3.85;;;;;;;19.39;57.60;100053.77;1674316;84;21189;-72
2021/06/06 10:58:51;;;;;;;5.95;3.08;;;;;;;19.44;57.41;100051.94;1661969;84;21461;-74
2021/06/06 11:01:26;;;;;;;4.22;3.25;;;;;;;19.53;57.08;100050.93;1670046;84;21029;-73
2021/06/06 11:04:06;;;;;;;6.08;2.98;;;;;;;19.63;57.12;100042.94;1676239;84;21576;-72
2021/06/06 11:06:37;;;;;;;8.10;3.75;;;;;;;19.78;57.61;100039.59;1673993;84;21614;-72
2021/06/06 11:09:11;;;;;;;5.15;3.55;;;;;;;19.88;56.62;100036.70;1676429;84;21083;-73
2021/06/06 11:11:40;;;;;;;6.75;3.65;;;;;;;19.94;57.09;100037.83;1671583;84;21109;-72
2021/06/06 11:14:18;;;;;;;7.15;3.02;;;;;;;20.05;56.77;100028.46;1673546;84;21541;-71
2021/06/06 11:16:52;;;;;;;4.35;3.52;;;;;;;20.19;56.62;100018.80;1678001;84;21035;-74
2021/06/06 11:19:24;;;;;;;7.45;3.80;;;;;;;20.32;56.83;100025.67;1670698;84;21122;-73
2021/06/06 11:21:59;;;;;;;8.53;3.33;;;;;;;20.37;56.72;100012.98;1672005;84;21623;-73
2021/06/06 11:24:44;;;;;;;8.50;3.58;;;;;;;20.50;56.25;100009.55;1683698;83;21585;-71
2021/06/06 11:27:26;;;;;;;5.83;2.60;;;;;;;20.68;56.01;100004.25;1682255;83;21157;-72
2021/06/06 11:30:22;;;;;;;7.12;3.05;;;;;;;20.89;55.95;100000.56;1673687;83;21105;-73
2021/06/06 11:33:02;;;;;;;5.15;3.15;;;;;;;21.13;55.11;100001.44;1677769;83;21070;-71
2021/06/06 11:35:38;;;;;;;3.65;2.72;;;;;;;21.32;54.89;99993.63;1678787;83;21054;-71
2021/06/06 11:38:40;;;;;;;3.80;2.87;;;;;;;21.47;54.59;99991.52;1688506;85;21074;-71
2021/06/06 11:41:16;;;;;;;4.10;2.45;;;;;;;21.65;54.52;99986.93;1686380;83;21070;-71
2021/06/06 11:43:52;;;;;;;6.12;2.55;;;;;;;21.82;51.81;99997.52;1661989;83;21526;-72
2021/06/06 11:46:53;;;;;;;5.28;2.25;;;;;;;21.93;52.02;99983.41;1664090;83;20984;-73
2021/06/06 11:49:58;;;;;;;1.85;1.02;;;;;;;22.04;49.83;99973.34;1611240;87;21166;-75
2021/06/06 11:52:36;;;;;;;4.55;1.40;;;;;;;22.09;47.49;99971.98;1669466;85;21031;-76
2021/06/06 11:55:28;;;;;;;1.75;1.12;;;;;;;22.14;45.91;99968.72;1690458;83;21031;-71
2021/06/06 11:58:20;;;;;;;7.12;1.25;;;;;;;22.23;45.59;99968.98;1685444;83;21116;-74